createdAt,value
2023-02-08T00:03:35.394Z,10.81
2023-02-08T00:08:39.220Z,10.74
2023-02-08T00:13:47.390Z,10.70
2023-02-08T00:18:53.219Z,10.70
2023-02-08T00:24:02.651Z,10.63
2023-02-08T00:29:09.491Z,10.58
2023-02-08T00:34:17.861Z,10.56
2023-02-08T00:39:32.618Z,10.55
2023-02-08T00:44:42.253Z,10.54
2023-02-08T00:49:53.329Z,10.53
2023-02-08T00:54:57.835Z,10.49
2023-02-08T01:00:13.626Z,10.43
2023-02-08T01:05:15.777Z,10.37
2023-02-08T01:10:18.817Z,10.33
2023-02-08T01:15:27.018Z,10.28
2023-02-08T01:20:43.073Z,10.21
2023-02-08T01:25:50.164Z,10.18
2023-02-08T01:30:59.479Z,10.17
2023-02-08T01:36:05.012Z,10.17
2023-02-08T01:41:22.036Z,10.14
2023-02-08T01:52:06.002Z,10.09
2023-02-08T01:57:12.511Z,10.07
2023-02-08T02:05:38.105Z,10.07
2023-02-08T02:10:44.688Z,10.09
2023-02-08T02:15:50.353Z,10.11
2023-02-08T02:21:35.941Z,10.11
2023-02-08T02:27:13.571Z,10.09
2023-02-08T02:32:40.914Z,10.06
2023-02-08T02:38:00.836Z,10.03
2023-02-08T02:43:49.356Z,10.03
2023-02-08T02:49:16.527Z,10.00
2023-02-08T02:54:43.711Z,9.98
2023-02-08T02:59:53.565Z,9.98
2023-02-08T03:04:58.270Z,9.97
2023-02-08T03:16:22.209Z,9.92
2023-02-08T03:21:35.905Z,9.88
2023-02-08T03:27:02.154Z,9.88
2023-02-08T03:32:38.109Z,9.89
2023-02-08T03:38:05.111Z,9.88
2023-02-08T03:43:31.975Z,9.87
2023-02-08T03:48:40.954Z,9.87
2023-02-08T03:53:53.871Z,9.85
2023-02-08T03:59:04.940Z,9.85
2023-02-08T04:04:16.537Z,9.82
2023-02-08T04:09:20.946Z,9.77
2023-02-08T04:14:27.324Z,9.74
2023-02-08T04:19:41.332Z,9.72
2023-02-08T04:25:00.274Z,9.67
2023-02-08T04:30:12.653Z,9.65
2023-02-08T04:35:20.761Z,9.62
2023-02-08T04:40:31.608Z,9.60
2023-02-08T04:45:45.301Z,9.57
2023-02-08T04:50:57.313Z,9.60
2023-02-08T04:56:05.315Z,9.60
2023-02-08T05:18:50.637Z,10.20
2023-02-08T05:24:12.312Z,10.12
2023-02-08T05:29:15.831Z,10.04
2023-02-08T05:34:32.667Z,9.97
2023-02-08T05:39:49.793Z,9.92
2023-02-08T05:44:58.130Z,9.87
2023-02-08T05:50:09.859Z,9.79
2023-02-08T05:55:14.930Z,9.76
2023-02-08T06:00:21.112Z,9.71
2023-02-08T06:05:27.014Z,9.67
2023-02-08T06:10:32.443Z,9.64
2023-02-08T06:15:42.935Z,9.61
2023-02-08T06:20:50.427Z,9.58
2023-02-08T06:26:00.280Z,9.57
2023-02-08T06:31:12.822Z,9.59
2023-02-08T06:36:23.385Z,9.63
2023-02-08T06:41:29.329Z,9.63
2023-02-08T06:46:39.249Z,9.65
2023-02-08T06:51:48.548Z,9.62
2023-02-08T06:57:00.335Z,9.66
2023-02-08T07:02:07.354Z,9.67
2023-02-08T07:07:20.143Z,9.66
2023-02-08T07:12:29.762Z,9.63
2023-02-08T07:17:36.589Z,9.61
2023-02-08T07:22:45.093Z,9.60
2023-02-08T07:27:52.174Z,9.59
2023-02-08T07:32:56.676Z,9.62
2023-02-08T07:38:03.792Z,9.65
2023-02-08T07:43:10.296Z,9.67
2023-02-08T07:48:31.356Z,9.71
2023-02-08T07:53:37.485Z,9.73
2023-02-08T07:58:44.184Z,9.75
2023-02-08T08:03:59.570Z,9.85
2023-02-08T08:09:04.722Z,10.01
2023-02-08T08:14:14.002Z,10.09
2023-02-08T08:19:28.616Z,10.04
2023-02-08T08:24:39.136Z,9.99
2023-02-08T08:29:41.467Z,10.00
2023-02-08T08:34:46.014Z,10.02
2023-02-08T08:39:58.790Z,10.06
2023-02-08T08:50:25.180Z,10.14
2023-02-08T08:55:32.496Z,10.16
2023-02-08T09:00:39.360Z,10.29
2023-02-08T09:05:46.259Z,10.45
2023-02-08T09:11:02.571Z,10.54
2023-02-08T09:16:17.390Z,10.56
2023-02-08T09:21:29.255Z,10.51
2023-02-08T09:26:42.365Z,10.46
2023-02-08T09:31:48.494Z,10.48
2023-02-08T09:36:51.963Z,10.68
2023-02-08T09:42:17.582Z,11.05
2023-02-08T09:47:30.173Z,12.00
2023-02-08T09:52:38.250Z,12.18
2023-02-08T09:57:45.217Z,12.39
2023-02-08T10:02:55.234Z,12.64
2023-02-08T10:08:02.537Z,12.93
2023-02-08T10:13:44.311Z,13.56
2023-02-08T10:19:05.782Z,14.12
2023-02-08T10:24:21.252Z,14.59
2023-02-08T10:30:04.223Z,15.01
2023-02-08T10:35:14.548Z,15.30
2023-02-08T10:40:34.349Z,15.22
2023-02-08T10:46:02.640Z,15.30
2023-02-08T10:57:26.004Z,15.12
2023-02-08T11:02:42.116Z,14.57
2023-02-08T11:07:45.419Z,14.07
2023-02-08T11:13:05.180Z,13.67
2023-02-08T11:18:26.193Z,13.65
2023-02-08T11:23:56.647Z,13.80
2023-02-08T11:29:23.329Z,13.67
2023-02-08T11:34:43.137Z,13.48
2023-02-08T11:39:55.394Z,13.15
2023-02-08T11:45:06.376Z,12.96
2023-02-08T11:50:26.890Z,12.79
2023-02-08T11:55:46.370Z,12.49
2023-02-08T12:01:40.116Z,12.24
2023-02-08T12:07:36.659Z,12.06
2023-02-08T12:13:18.341Z,11.80
2023-02-08T12:18:48.093Z,11.65
2023-02-08T12:24:01.121Z,11.60
2023-02-08T12:29:47.886Z,11.49
2023-02-08T12:35:33.175Z,11.45
2023-02-08T12:41:04.835Z,11.38
2023-02-08T12:46:30.585Z,11.43
2023-02-08T12:51:59.375Z,11.47
2023-02-08T12:57:23.383Z,11.67
2023-02-08T13:02:57.538Z,11.95
2023-02-08T13:08:40.254Z,12.66
2023-02-08T13:13:58.186Z,13.23
2023-02-08T13:19:17.258Z,13.81
2023-02-08T13:24:40.062Z,14.30
2023-02-08T13:29:57.984Z,14.60
2023-02-08T13:35:17.595Z,14.64
2023-02-08T13:40:30.209Z,14.48
2023-02-08T13:45:52.259Z,13.97
2023-02-08T13:51:00.501Z,13.66
2023-02-08T13:56:12.394Z,13.35
2023-02-08T14:01:23.684Z,13.13
2023-02-08T14:06:33.664Z,13.08
2023-02-08T14:12:06.817Z,13.18
2023-02-08T14:17:27.972Z,13.32
2023-02-08T14:22:49.902Z,13.23
2023-02-08T14:28:07.356Z,13.13
2023-02-08T14:33:21.882Z,12.84
2023-02-08T14:38:47.397Z,12.58
2023-02-08T14:43:52.521Z,12.39
2023-02-08T14:48:59.623Z,12.25
2023-02-08T14:54:22.224Z,12.03
2023-02-08T14:59:31.032Z,11.89
2023-02-08T15:04:50.022Z,11.77
2023-02-08T15:09:56.263Z,11.70
2023-02-08T15:15:04.292Z,11.67
2023-02-08T15:20:24.621Z,11.55
2023-02-08T15:25:38.559Z,11.46
2023-02-08T15:30:47.174Z,11.36
2023-02-08T15:36:06.376Z,11.30
2023-02-08T15:41:26.119Z,11.30
2023-02-08T15:46:39.648Z,11.25
2023-02-08T15:52:02.116Z,11.20
2023-02-08T15:57:44.845Z,11.15
2023-02-08T16:03:04.807Z,11.10
2023-02-08T16:08:29.583Z,11.06
2023-02-08T16:13:56.402Z,10.97
2023-02-08T16:19:25.142Z,10.94
2023-02-08T16:24:31.139Z,10.97
2023-02-08T16:29:42.521Z,11.03
2023-02-08T16:34:51.964Z,11.03
2023-02-08T16:40:02.809Z,11.05
2023-02-08T16:45:27.643Z,11.08
2023-02-08T16:50:36.280Z,11.08
2023-02-08T16:55:42.681Z,11.08
2023-02-08T17:00:47.761Z,11.09
2023-02-08T17:05:56.756Z,11.09
2023-02-08T17:11:03.495Z,11.09
2023-02-08T17:16:22.423Z,11.04
2023-02-08T17:21:30.107Z,10.99
2023-02-08T17:26:39.393Z,10.98
2023-02-08T17:31:49.384Z,10.94
2023-02-08T17:36:53.899Z,10.91
2023-02-08T17:42:01.044Z,10.89
2023-02-08T17:47:14.800Z,10.87
2023-02-08T17:52:24.680Z,10.84
2023-02-08T17:57:48.007Z,10.80
2023-02-08T18:02:55.849Z,10.83
2023-02-08T18:08:03.006Z,10.84
2023-02-08T18:13:06.906Z,10.80
2023-02-08T18:18:20.031Z,10.72
2023-02-08T18:23:36.046Z,10.65
2023-02-08T18:28:45.858Z,10.61
2023-02-08T18:33:54.796Z,10.55
2023-02-08T18:39:09.419Z,10.45
2023-02-08T18:44:14.473Z,10.35
2023-02-08T18:49:20.784Z,10.26
2023-02-08T18:54:41.196Z,10.20
2023-02-08T18:59:54.301Z,10.13
2023-02-08T19:05:02.086Z,10.13
2023-02-08T19:10:09.868Z,10.08
2023-02-08T19:15:14.676Z,10.08
2023-02-08T19:20:21.302Z,10.01
2023-02-08T19:30:47.134Z,9.92
2023-02-08T19:35:58.618Z,9.90
2023-02-08T19:41:05.476Z,9.93
2023-02-08T19:46:13.923Z,9.96
2023-02-08T19:51:25.290Z,9.98
2023-02-08T19:56:35.460Z,10.05
2023-02-08T20:01:38.751Z,10.06
2023-02-08T20:06:57.684Z,9.97
2023-02-08T20:12:07.543Z,9.93
2023-02-08T20:17:14.076Z,9.88
2023-02-08T20:22:25.891Z,9.82
2023-02-08T20:27:34.553Z,9.78
2023-02-08T20:32:45.673Z,9.76
2023-02-08T20:37:49.557Z,9.76
2023-02-08T20:42:56.290Z,9.75
2023-02-08T20:48:00.926Z,9.73
2023-02-08T20:53:13.815Z,9.71
2023-02-08T20:58:19.058Z,9.71
2023-02-08T21:03:23.102Z,9.73
2023-02-08T21:08:27.512Z,9.75
2023-02-08T21:13:41.826Z,9.76
2023-02-08T21:18:52.165Z,9.79
2023-02-08T21:24:05.755Z,9.82
2023-02-08T21:29:24.327Z,9.81
2023-02-08T21:34:33.106Z,9.78
2023-02-08T21:39:37.998Z,9.76
2023-02-08T21:44:55.938Z,9.75
2023-02-08T21:50:18.914Z,9.74
2023-02-08T21:55:23.651Z,9.77
2023-02-08T22:00:35.439Z,9.79
2023-02-08T22:06:02.125Z,9.84
2023-02-08T22:11:09.591Z,9.85
2023-02-08T22:16:18.296Z,9.87
2023-02-08T22:21:29.425Z,9.87
2023-02-08T22:26:43.539Z,9.86
2023-02-08T22:32:02.750Z,9.88
2023-02-08T22:37:09.021Z,9.89
2023-02-08T22:42:17.763Z,9.88
2023-02-08T22:47:26.607Z,9.88
2023-02-08T22:52:34.872Z,9.87
2023-02-08T22:57:43.678Z,9.87
2023-02-08T23:02:58.793Z,9.86
2023-02-08T23:08:05.533Z,9.84
2023-02-08T23:13:11.458Z,9.85
2023-02-08T23:18:17.458Z,9.88
2023-02-08T23:23:30.258Z,9.89
2023-02-08T23:28:38.320Z,9.90
2023-02-08T23:33:46.403Z,9.89
2023-02-08T23:39:05.428Z,9.88
2023-02-08T23:44:16.596Z,9.88
2023-02-08T23:54:46.955Z,9.89
2023-02-08T23:59:53.153Z,9.87
